createdAt,value
2018-12-23T00:02:22.469Z,91.90
2018-12-23T00:04:56.853Z,91.80
2018-12-23T00:07:31.125Z,91.90
2018-12-23T00:10:05.861Z,91.80
2018-12-23T00:12:40.247Z,91.70
2018-12-23T00:15:14.818Z,91.60
2018-12-23T00:17:49.188Z,91.50
2018-12-23T00:20:23.565Z,91.40
2018-12-23T00:22:58.060Z,91.10
2018-12-23T00:25:32.452Z,90.80
2018-12-23T00:28:06.826Z,90.70
2018-12-23T00:30:41.195Z,90.30
2018-12-23T00:33:15.721Z,90.10
2018-12-23T00:35:50.151Z,90.00
2018-12-23T00:38:24.591Z,89.80
2018-12-23T00:40:59.091Z,89.50
2018-12-23T00:43:33.418Z,89.30
2018-12-23T00:46:07.874Z,89.30
2018-12-23T00:48:42.524Z,89.00
2018-12-23T00:51:16.839Z,88.90
2018-12-23T00:53:51.259Z,88.70
2018-12-23T00:56:25.658Z,88.30
2018-12-23T00:59:00.028Z,88.10
2018-12-23T01:01:34.348Z,88.20
2018-12-23T01:04:08.840Z,88.20
2018-12-23T01:06:43.175Z,88.00
2018-12-23T01:09:17.765Z,88.00
2018-12-23T01:11:52.783Z,87.80
2018-12-23T01:14:27.202Z,87.80
2018-12-23T01:17:01.479Z,87.80
2018-12-23T01:19:35.866Z,87.50
2018-12-23T01:22:10.308Z,87.70
2018-12-23T01:24:44.623Z,87.60
2018-12-23T01:27:18.893Z,87.60
2018-12-23T01:29:53.367Z,87.70
2018-12-23T01:32:27.755Z,87.80
2018-12-23T01:35:02.118Z,87.70
2018-12-23T01:37:36.463Z,87.80
2018-12-23T01:40:10.883Z,87.80
2018-12-23T01:42:45.303Z,87.80
2018-12-23T01:45:19.705Z,87.80
2018-12-23T01:47:54.015Z,88.00
2018-12-23T01:50:28.531Z,88.30
2018-12-23T01:53:02.876Z,88.60
2018-12-23T01:55:37.354Z,88.80
2018-12-23T01:58:11.638Z,88.80
2018-12-23T02:00:46.079Z,88.70
2018-12-23T02:03:20.562Z,89.00
2018-12-23T02:05:54.932Z,89.00
2018-12-23T02:08:29.207Z,89.40
2018-12-23T02:11:03.607Z,90.00
2018-12-23T02:13:38.016Z,90.00
2018-12-23T02:16:12.424Z,90.20
2018-12-23T02:18:46.783Z,90.40
2018-12-23T02:21:21.167Z,91.40
2018-12-23T02:23:55.784Z,91.60
2018-12-23T02:26:30.279Z,91.60
2018-12-23T02:29:04.650Z,91.60
2018-12-23T02:31:39.011Z,91.90
2018-12-23T02:34:13.290Z,92.30
2018-12-23T02:36:47.806Z,92.40
2018-12-23T02:39:22.205Z,92.80
2018-12-23T02:41:56.587Z,92.60
2018-12-23T02:44:30.916Z,92.20
2018-12-23T02:47:05.384Z,92.40
2018-12-23T02:49:39.820Z,92.50
2018-12-23T02:52:14.321Z,92.50
2018-12-23T02:54:48.666Z,92.50
2018-12-23T02:57:22.907Z,92.50
2018-12-23T02:59:57.251Z,92.60
2018-12-23T03:02:31.859Z,92.50
2018-12-23T03:05:06.396Z,92.50
2018-12-23T03:07:40.894Z,92.30
2018-12-23T03:10:15.386Z,92.40
2018-12-23T03:12:49.992Z,92.10
2018-12-23T03:15:24.533Z,91.90
2018-12-23T03:17:59.109Z,91.80
2018-12-23T03:20:33.552Z,92.00
2018-12-23T03:23:07.872Z,91.50
2018-12-23T03:25:42.211Z,91.70
2018-12-23T03:28:16.577Z,91.40
2018-12-23T03:30:51.286Z,91.60
2018-12-23T03:33:25.795Z,91.90
2018-12-23T03:36:00.152Z,91.80
2018-12-23T03:38:34.502Z,91.80
2018-12-23T03:41:08.880Z,92.00
2018-12-23T03:43:43.259Z,92.10
2018-12-23T03:46:17.770Z,92.20
2018-12-23T03:48:52.300Z,92.10
2018-12-23T03:51:26.623Z,92.00
2018-12-23T03:54:01.069Z,92.20
2018-12-23T03:56:35.494Z,92.30
2018-12-23T03:59:09.971Z,92.00
2018-12-23T04:01:44.373Z,92.10
2018-12-23T04:04:18.779Z,92.00
2018-12-23T04:06:53.304Z,92.10
2018-12-23T04:09:27.575Z,92.10
2018-12-23T04:12:02.088Z,92.20
2018-12-23T04:14:36.580Z,92.50
2018-12-23T04:17:11.199Z,92.50
2018-12-23T04:19:45.731Z,92.30
2018-12-23T04:22:20.052Z,92.50
2018-12-23T04:24:54.363Z,92.50
2018-12-23T04:27:28.736Z,92.40
2018-12-23T04:30:03.155Z,92.40
2018-12-23T04:32:37.647Z,92.40
2018-12-23T04:35:12.008Z,92.40
2018-12-23T04:37:46.383Z,92.60
2018-12-23T04:40:20.712Z,92.60
2018-12-23T04:42:54.977Z,92.70
2018-12-23T04:45:29.297Z,92.90
2018-12-23T04:48:03.948Z,93.00
2018-12-23T04:50:38.434Z,93.10
2018-12-23T04:53:13.038Z,93.20
2018-12-23T04:55:47.593Z,93.40
2018-12-23T04:58:21.946Z,93.50
2018-12-23T05:00:56.319Z,93.60
2018-12-23T05:03:30.845Z,93.80
2018-12-23T05:06:11.714Z,93.70
2018-12-23T05:08:46.266Z,94.10
2018-12-23T05:11:20.554Z,93.90
2018-12-23T05:13:54.877Z,93.90
2018-12-23T05:16:29.288Z,93.90
2018-12-23T05:19:03.669Z,93.90
2018-12-23T05:21:37.982Z,94.10
2018-12-23T05:24:12.237Z,94.30
2018-12-23T05:26:46.550Z,94.50
2018-12-23T05:29:21.003Z,94.70
2018-12-23T05:31:55.531Z,94.70
2018-12-23T05:34:29.838Z,94.80
2018-12-23T05:37:04.309Z,94.80
2018-12-23T05:39:38.703Z,95.00
2018-12-23T05:42:13.048Z,95.00
2018-12-23T05:44:47.513Z,95.00
2018-12-23T05:47:21.932Z,95.00
2018-12-23T05:49:56.283Z,94.90
2018-12-23T05:52:30.821Z,94.80
2018-12-23T05:55:05.271Z,95.00
2018-12-23T05:57:39.575Z,95.00
2018-12-23T06:00:13.882Z,95.10
2018-12-23T06:02:48.186Z,95.30
2018-12-23T06:05:22.765Z,95.40
2018-12-23T06:07:57.209Z,95.30
2018-12-23T06:10:31.679Z,95.20
2018-12-23T06:13:06.125Z,95.30
2018-12-23T06:15:40.575Z,95.30
2018-12-23T06:18:14.939Z,95.30
2018-12-23T06:20:49.281Z,95.50
2018-12-23T06:23:23.695Z,95.70
2018-12-23T06:25:58.133Z,95.60
2018-12-23T06:28:32.623Z,95.70
2018-12-23T06:31:07.079Z,95.60
2018-12-23T06:33:41.402Z,95.50
2018-12-23T06:36:15.766Z,95.30
2018-12-23T06:38:50.152Z,95.20
2018-12-23T06:41:24.623Z,95.20
2018-12-23T06:43:59.210Z,95.20
2018-12-23T06:46:33.567Z,95.20
2018-12-23T06:49:07.985Z,95.40
2018-12-23T06:51:42.407Z,95.50
2018-12-23T06:54:16.892Z,95.50
2018-12-23T06:56:51.352Z,95.30
2018-12-23T06:59:25.739Z,95.20
2018-12-23T07:02:00.184Z,95.20
2018-12-23T07:04:34.448Z,95.10
2018-12-23T07:07:09.044Z,95.00
2018-12-23T07:09:43.840Z,95.10
2018-12-23T07:12:18.253Z,95.30
2018-12-23T07:14:52.829Z,95.30
2018-12-23T07:17:27.337Z,95.40
2018-12-23T07:20:01.787Z,95.30
2018-12-23T07:22:36.183Z,95.20
2018-12-23T07:25:10.535Z,95.30
2018-12-23T07:27:44.930Z,95.10
2018-12-23T07:30:19.375Z,95.20
2018-12-23T07:32:53.872Z,95.30
2018-12-23T07:35:28.155Z,95.20
2018-12-23T07:38:02.598Z,95.20
2018-12-23T07:40:37.191Z,95.40
2018-12-23T07:43:11.815Z,94.90
2018-12-23T07:45:46.205Z,94.80
2018-12-23T07:49:02.004Z,94.70
2018-12-23T07:52:03.512Z,94.80
2018-12-23T07:55:04.970Z,94.70
2018-12-23T07:57:54.394Z,94.90
2018-12-23T08:04:30.136Z,94.80
2018-12-23T08:07:38.588Z,94.70
2018-12-23T08:10:47.376Z,94.80
2018-12-23T08:13:55.883Z,94.80
2018-12-23T08:16:56.713Z,94.70
2018-12-23T08:19:58.060Z,94.70
2018-12-23T08:22:59.470Z,94.60
2018-12-23T08:26:00.794Z,95.00
2018-12-23T08:29:02.084Z,94.90
2018-12-23T08:32:02.937Z,94.90
2018-12-23T08:35:03.899Z,94.90
2018-12-23T08:38:04.666Z,94.70
2018-12-23T08:41:05.993Z,94.80
2018-12-23T08:44:07.225Z,94.60
2018-12-23T08:47:07.880Z,94.80
2018-12-23T08:49:57.184Z,95.20
2018-12-23T08:56:00.544Z,94.70
2018-12-23T08:59:09.460Z,94.50
2018-12-23T09:02:17.824Z,94.50
2018-12-23T09:08:53.733Z,94.10
2018-12-23T09:15:09.350Z,93.10
2018-12-23T09:18:10.068Z,92.70
2018-12-23T09:21:10.747Z,93.00
2018-12-23T09:24:11.744Z,92.10
2018-12-23T09:27:12.865Z,92.60
2018-12-23T09:30:13.915Z,91.90
2018-12-23T09:33:15.064Z,91.80
2018-12-23T09:36:16.180Z,91.50
2018-12-23T09:39:17.489Z,91.40
2018-12-23T09:42:18.369Z,90.40
2018-12-23T09:45:08.185Z,90.40
2018-12-23T09:48:16.581Z,90.30
2018-12-23T09:54:52.386Z,90.10
2018-12-23T09:58:00.853Z,90.00
2018-12-23T10:01:09.568Z,92.30
2018-12-23T10:04:17.974Z,90.60
2018-12-23T10:07:26.384Z,90.50
2018-12-23T10:10:34.756Z,90.30
2018-12-23T10:13:43.719Z,90.20
2018-12-23T10:16:45.070Z,90.40
2018-12-23T10:19:46.367Z,90.70
2018-12-23T10:22:47.517Z,91.20
2018-12-23T10:25:48.631Z,91.00
2018-12-23T10:28:49.281Z,91.00
2018-12-23T10:31:50.615Z,90.40
2018-12-23T10:34:40.519Z,90.40
2018-12-23T10:37:48.905Z,90.90
2018-12-23T10:40:57.284Z,90.40
2018-12-23T10:44:06.005Z,88.90
2018-12-23T10:50:28.497Z,84.90
2018-12-23T10:53:17.869Z,83.70
2018-12-23T10:56:26.291Z,82.90
2018-12-23T10:59:34.770Z,82.30
2018-12-23T11:05:57.469Z,80.50
2018-12-23T11:15:27.520Z,79.50
2018-12-23T11:18:28.793Z,78.90
2018-12-23T11:21:29.876Z,78.90
2018-12-23T11:24:19.263Z,78.30
2018-12-23T11:30:41.866Z,78.70
2018-12-23T11:33:50.259Z,79.60
2018-12-23T11:36:58.668Z,79.60
2018-12-23T11:40:07.750Z,79.20
2018-12-23T11:43:16.264Z,80.00
2018-12-23T11:46:24.694Z,79.10
2018-12-23T11:49:33.124Z,78.20
2018-12-23T11:52:41.597Z,78.60
2018-12-23T11:55:49.972Z,79.60
2018-12-23T11:58:58.400Z,79.00
2018-12-23T12:05:15.346Z,79.20
2018-12-23T12:08:23.771Z,78.50
2018-12-23T12:11:32.132Z,79.00
2018-12-23T12:14:40.593Z,79.70
2018-12-23T12:17:41.760Z,79.60
2018-12-23T12:20:42.741Z,79.90
2018-12-23T12:23:43.900Z,80.00
2018-12-23T12:26:45.608Z,80.70
2018-12-23T12:29:46.744Z,81.40
2018-12-23T12:32:47.338Z,80.60
2018-12-23T12:35:48.683Z,81.00
2018-12-23T12:38:52.290Z,82.90
2018-12-23T12:41:52.387Z,82.50
2018-12-23T12:44:53.524Z,83.30
2018-12-23T12:47:54.328Z,82.80
2018-12-23T12:50:55.542Z,84.20
2018-12-23T12:53:56.482Z,85.60
2018-12-23T12:56:57.350Z,85.70
2018-12-23T12:59:58.622Z,85.50
2018-12-23T13:02:59.656Z,85.70
2018-12-23T13:06:00.424Z,86.10
2018-12-23T13:09:01.287Z,86.10
2018-12-23T13:12:02.702Z,86.50
2018-12-23T13:15:03.958Z,87.60
2018-12-23T13:18:05.102Z,86.10
2018-12-23T13:21:06.416Z,87.20
2018-12-23T13:24:07.528Z,86.90
2018-12-23T13:27:08.820Z,86.60
2018-12-23T13:30:10.417Z,87.60
2018-12-23T13:33:11.473Z,86.60
2018-12-23T13:36:12.624Z,88.20
2018-12-23T13:39:13.381Z,88.70
2018-12-23T13:42:14.633Z,89.80
2018-12-23T13:45:15.919Z,89.80
2018-12-23T13:51:49.330Z,91.30
2018-12-23T13:54:50.785Z,91.00
2018-12-23T13:57:51.533Z,91.60
2018-12-23T14:00:52.460Z,91.80
2018-12-23T14:03:53.209Z,91.70
2018-12-23T14:06:54.929Z,91.90
2018-12-23T14:09:55.834Z,92.40
2018-12-23T14:12:57.231Z,92.90
2018-12-23T14:15:46.781Z,92.70
2018-12-23T14:22:22.609Z,93.20
2018-12-23T14:28:44.810Z,93.90
2018-12-23T14:31:53.247Z,93.90
2018-12-23T14:35:01.766Z,95.50
2018-12-23T14:38:10.140Z,94.50
2018-12-23T14:41:18.892Z,94.70
2018-12-23T14:44:27.317Z,94.60
2018-12-23T14:47:36.023Z,94.50
2018-12-23T14:50:25.396Z,94.80
2018-12-23T14:53:33.832Z,94.70
2018-12-23T14:56:42.204Z,94.80
2018-12-23T14:59:50.944Z,94.90
2018-12-23T15:02:59.401Z,95.00
2018-12-23T15:06:07.922Z,95.10
2018-12-23T15:09:16.348Z,95.20
2018-12-23T15:15:31.207Z,95.60
2018-12-23T15:18:32.261Z,95.20
2018-12-23T15:21:31.809Z,95.30
2018-12-23T15:28:07.655Z,95.30
2018-12-23T15:34:30.572Z,95.30
2018-12-23T15:40:53.100Z,95.40
2018-12-23T15:47:15.488Z,97.50
2018-12-23T15:53:51.315Z,95.80
2018-12-23T15:56:59.700Z,95.90
2018-12-23T16:03:15.992Z,96.10
2018-12-23T16:13:06.258Z,96.10
2018-12-23T16:16:07.449Z,96.20
2018-12-23T16:19:08.485Z,96.20
2018-12-23T16:22:09.549Z,96.40
2018-12-23T16:25:10.360Z,96.50
2018-12-23T16:28:11.428Z,96.60
2018-12-23T16:31:12.445Z,96.70
2018-12-23T16:34:13.137Z,97.00
2018-12-23T16:37:14.506Z,97.20
2018-12-23T16:40:15.626Z,97.20
2018-12-23T16:43:16.784Z,97.20
2018-12-23T16:46:06.212Z,97.10
2018-12-23T16:49:14.639Z,97.00
2018-12-23T16:52:23.079Z,97.20
2018-12-23T16:55:31.586Z,97.20
2018-12-23T16:58:40.357Z,97.40
2018-12-23T17:01:29.899Z,97.60
2018-12-23T17:04:38.357Z,97.80
2018-12-23T17:11:14.191Z,98.20
2018-12-23T17:14:22.557Z,98.40
2018-12-23T17:17:23.260Z,98.60
2018-12-23T17:20:24.181Z,98.70
2018-12-23T17:23:25.117Z,98.60
2018-12-23T17:26:26.018Z,98.60
2018-12-23T17:29:27.019Z,98.70
2018-12-23T17:32:28.495Z,98.80
2018-12-23T17:35:29.164Z,98.90
2018-12-23T17:38:18.604Z,99.10
2018-12-23T17:41:07.900Z,99.10
2018-12-23T17:44:16.278Z,99.20
2018-12-23T17:47:24.910Z,99.20
2018-12-23T17:50:33.284Z,99.30
2018-12-23T17:53:41.648Z,99.30
2018-12-23T17:56:50.188Z,99.00
2018-12-23T17:59:39.760Z,99.20
2018-12-23T18:05:56.664Z,98.60
2018-12-23T18:12:20.594Z,98.70
2018-12-23T18:15:21.260Z,99.40
2018-12-23T18:18:22.191Z,98.60
2018-12-23T18:21:23.268Z,98.60
2018-12-23T18:24:25.093Z,98.60
2018-12-23T18:27:25.886Z,98.60
2018-12-23T18:30:27.026Z,98.80
2018-12-23T18:33:28.130Z,98.80
2018-12-23T18:36:27.744Z,99.20
2018-12-23T18:43:03.568Z,98.70
2018-12-23T18:46:12.318Z,98.80
2018-12-23T18:49:20.977Z,99.00
2018-12-23T18:52:29.563Z,99.10
2018-12-23T18:55:19.761Z,98.90
2018-12-23T18:58:28.528Z,98.70
2018-12-23T19:01:37.972Z,98.30
2018-12-23T19:04:46.441Z,98.30
2018-12-23T19:08:13.914Z,97.70
2018-12-23T19:11:41.402Z,96.20
2018-12-23T19:15:08.870Z,95.80
2018-12-23T19:18:10.177Z,95.20
2018-12-23T19:21:11.644Z,95.10
2018-12-23T19:24:12.660Z,94.80
2018-12-23T19:27:13.925Z,95.20
2018-12-23T19:30:15.121Z,94.70
2018-12-23T19:33:16.542Z,94.80
2018-12-23T19:36:27.252Z,95.30
2018-12-23T19:39:54.812Z,95.00
2018-12-23T19:43:22.391Z,94.30
2018-12-23T19:46:49.884Z,94.30
2018-12-23T19:50:17.388Z,94.40
2018-12-23T19:53:44.928Z,94.30
2018-12-23T19:57:12.397Z,93.50
2018-12-23T20:00:39.897Z,93.20
2018-12-23T20:04:07.451Z,93.20
2018-12-23T20:07:34.904Z,94.20
2018-12-23T20:14:48.851Z,93.10
2018-12-23T20:17:50.332Z,92.80
2018-12-23T20:20:51.408Z,92.40
2018-12-23T20:24:18.901Z,92.10
2018-12-23T20:27:46.369Z,92.60
2018-12-23T20:31:13.832Z,92.20
2018-12-23T20:34:41.416Z,92.10
2018-12-23T20:38:08.909Z,92.50
2018-12-23T20:41:36.369Z,91.90
2018-12-23T20:45:03.837Z,92.20
2018-12-23T20:48:19.014Z,91.90
2018-12-23T20:51:46.782Z,91.60
2018-12-23T20:55:14.252Z,91.90
2018-12-23T20:58:41.717Z,91.90
2018-12-23T21:02:09.214Z,91.80
2018-12-23T21:05:36.840Z,91.70
2018-12-23T21:09:05.500Z,91.70
2018-12-23T21:12:33.009Z,91.80
2018-12-23T21:15:34.647Z,92.00
2018-12-23T21:18:35.931Z,92.00
2018-12-23T21:21:36.820Z,92.20
2018-12-23T21:24:38.005Z,92.00
2018-12-23T21:27:39.145Z,92.20
2018-12-23T21:30:40.316Z,92.40
2018-12-23T21:33:41.323Z,92.30
2018-12-23T21:36:42.028Z,92.20
2018-12-23T21:39:42.685Z,93.40
2018-12-23T21:42:43.805Z,92.30
2018-12-23T21:45:44.664Z,92.20
2018-12-23T21:48:47.847Z,92.50
2018-12-23T21:51:48.853Z,93.90
2018-12-23T21:54:49.837Z,92.90
2018-12-23T21:58:11.937Z,92.90
2018-12-23T22:01:39.425Z,92.90
2018-12-23T22:05:06.994Z,92.90
2018-12-23T22:08:34.450Z,93.00
2018-12-23T22:12:02.617Z,92.90
2018-12-23T22:15:04.356Z,92.90
2018-12-23T22:17:55.786Z,93.00
2018-12-23T22:21:04.334Z,93.10
2018-12-23T22:24:12.820Z,93.20
2018-12-23T22:27:21.324Z,93.30
2018-12-23T22:30:30.219Z,93.40
2018-12-23T22:33:19.923Z,93.50
2018-12-23T22:36:28.579Z,93.40
2018-12-23T22:39:18.095Z,93.70
2018-12-23T22:42:26.699Z,93.70
2018-12-23T22:45:16.273Z,94.60
2018-12-23T22:48:24.965Z,93.40
2018-12-23T22:51:33.497Z,93.60
2018-12-23T22:54:23.105Z,93.40
2018-12-23T22:57:31.707Z,93.60
2018-12-23T23:04:09.323Z,93.30
2018-12-23T23:10:25.937Z,93.70
2018-12-23T23:13:34.394Z,93.40
2018-12-23T23:16:35.106Z,93.30
2018-12-23T23:19:35.976Z,93.30
2018-12-23T23:22:36.899Z,92.80
2018-12-23T23:25:37.532Z,92.70
2018-12-23T23:28:39.619Z,92.30
2018-12-23T23:31:40.696Z,92.30
2018-12-23T23:34:41.639Z,92.00
2018-12-23T23:37:42.764Z,93.80
2018-12-23T23:40:44.218Z,91.80
2018-12-23T23:43:45.433Z,91.70
2018-12-23T23:46:46.586Z,91.50
2018-12-23T23:49:47.744Z,90.80
2018-12-23T23:52:47.272Z,90.50
2018-12-23T23:55:55.668Z,90.50
2018-12-23T23:59:04.158Z,90.40
